Time;durP1;ratioP1;P1;durP2;ratioP2;P2;SDS_P1;SDS_P2;PMS_P1;PMS_P2;Temp;Humidity;BMP_temperature;BMP_pressure;BME280_temperature;BME280_humidity;BME280_pressure;Samples;Min_cycle;Max_cycle;Signal;HPM_P1;HPM_P2
2022/01/30 07:18:02;;;;;;;283.87;120.73;;;;;;;26.18;65.49;101196.84;5145391;27;21087;-71
2022/01/30 07:20:28;;;;;;;287.57;121.87;;;;;;;26.48;64.75;101210.31;5094232;27;20556;-71
2022/01/30 07:22:55;;;;;;;264.07;119.17;;;;;;;26.72;63.46;101202.50;5078107;28;20419;-73
2022/01/30 07:25:21;;;;;;;231.47;113.20;;;;;;;26.94;62.65;101217.00;5078775;27;20415;-71
2022/01/30 07:27:47;;;;;;;284.83;118.27;;;;;;;27.15;62.07;101225.63;5095265;27;20748;-71
2022/01/30 07:30:13;;;;;;;263.43;108.83;;;;;;;27.28;61.93;101233.44;5118361;27;20912;-74
2022/01/30 07:32:39;;;;;;;227.07;97.27;;;;;;;27.37;61.44;101234.75;5072100;27;21005;-72
2022/01/30 07:35:06;;;;;;;269.07;118.70;;;;;;;27.46;60.59;101233.41;5091911;27;20423;-71
2022/01/30 07:37:33;;;;;;;310.23;166.90;;;;;;;27.55;60.36;101240.03;5104733;28;20475;-74
2022/01/30 07:40:01;;;;;;;341.03;177.60;;;;;;;27.64;59.72;101237.09;5089856;28;20442;-73
2022/01/30 07:42:27;;;;;;;276.47;120.30;;;;;;;27.69;59.52;101247.91;5057998;28;20452;-73
2022/01/30 07:44:53;;;;;;;273.20;131.33;;;;;;;27.78;59.50;101243.88;5057740;28;20507;-71
2022/01/30 07:47:21;;;;;;;298.57;138.33;;;;;;;27.84;59.21;101250.97;5074107;28;20452;-73
2022/01/30 07:49:51;;;;;;;401.10;188.87;;;;;;;27.88;59.26;101252.16;5074394;28;20403;-73
2022/01/30 07:52:19;;;;;;;357.13;168.47;;;;;;;27.92;58.89;101252.50;5076430;27;20434;-71
2022/01/30 07:54:45;;;;;;;355.93;189.60;;;;;;;27.96;58.78;101257.16;5110929;27;20412;-68
2022/01/30 07:57:11;;;;;;;299.37;143.83;;;;;;;28.01;58.25;101253.81;5093610;27;20447;-66
2022/01/30 07:59:37;;;;;;;317.67;139.43;;;;;;;28.02;58.38;101261.56;5094119;27;20424;-69
2022/01/30 08:02:04;;;;;;;282.90;143.73;;;;;;;28.06;58.41;101257.41;5097272;27;20417;-66
2022/01/30 08:04:30;;;;;;;265.93;137.93;;;;;;;28.13;58.08;101257.31;5110608;27;20498;-67
2022/01/30 08:06:56;;;;;;;283.77;142.20;;;;;;;28.17;57.72;101263.78;5091978;27;20408;-69
2022/01/30 08:09:22;;;;;;;279.87;135.73;;;;;;;28.19;57.43;101269.72;5101038;27;20928;-67
2022/01/30 08:11:48;;;;;;;305.60;144.00;;;;;;;28.23;57.27;101273.53;5123348;28;20450;-67
2022/01/30 08:14:14;;;;;;;252.53;135.67;;;;;;;28.25;57.01;101271.47;5117572;27;20428;-66
2022/01/30 08:16:40;;;;;;;324.37;129.07;;;;;;;28.31;56.22;101272.41;5106454;28;20474;-69
2022/01/30 08:19:06;;;;;;;253.83;119.10;;;;;;;28.33;56.09;101284.50;5107940;28;20465;-68
2022/01/30 08:21:32;;;;;;;285.17;133.43;;;;;;;28.37;55.87;101282.19;5108515;28;20428;-69
2022/01/30 08:23:58;;;;;;;290.77;131.03;;;;;;;28.37;56.10;101282.19;5107263;28;20412;-68
2022/01/30 08:26:26;;;;;;;264.77;123.37;;;;;;;28.41;55.56;101283.34;5107855;28;20944;-69
2022/01/30 08:28:52;;;;;;;259.80;117.87;;;;;;;28.47;55.10;101285.09;5095742;28;20440;-67
2022/01/30 08:31:18;;;;;;;241.03;124.30;;;;;;;28.56;55.52;101286.41;5092934;28;20507;-67
2022/01/30 08:33:46;;;;;;;276.23;133.70;;;;;;;28.62;54.88;101292.66;5092971;28;20415;-67
2022/01/30 08:36:12;;;;;;;250.33;128.37;;;;;;;28.64;54.48;101291.38;5092686;28;20934;-67
2022/01/30 08:38:38;;;;;;;273.20;134.83;;;;;;;28.60;54.81;101292.06;5095061;28;20891;-69
2022/01/30 08:41:04;;;;;;;264.47;120.67;;;;;;;28.58;54.24;101289.63;5091592;28;20418;-74
2022/01/30 08:43:30;;;;;;;291.23;120.63;;;;;;;28.69;53.30;101285.34;5091916;28;20425;-69
2022/01/30 08:45:57;;;;;;;277.97;125.10;;;;;;;28.69;52.51;101287.22;5093198;28;20424;-69
2022/01/30 08:48:23;;;;;;;278.77;129.53;;;;;;;28.74;51.70;101290.00;5092403;28;20425;-68
2022/01/30 08:50:49;;;;;;;267.40;123.00;;;;;;;28.77;51.16;101289.53;5093050;28;20413;-68
2022/01/30 08:53:15;;;;;;;259.33;117.60;;;;;;;28.83;49.01;101280.59;5092759;28;20942;-70
2022/01/30 08:55:42;;;;;;;275.43;118.00;;;;;;;29.03;45.58;101285.59;5101026;28;20447;-68
2022/01/30 08:58:09;;;;;;;299.87;112.73;;;;;;;29.11;43.08;101283.38;5101280;28;20429;-69
2022/01/30 09:00:41;;;;;;;269.93;112.50;;;;;;;29.24;39.77;101282.31;5092294;28;20433;-69
2022/01/30 09:03:08;;;;;;;215.80;93.47;;;;;;;29.27;35.44;101275.66;5094160;28;20486;-70
2022/01/30 09:05:35;;;;;;;231.60;93.50;;;;;;;29.35;37.31;101276.13;5114900;27;20838;-67
2022/01/30 09:08:05;;;;;;;224.43;88.93;;;;;;;29.42;35.18;101278.66;5106585;28;20840;-68
2022/01/30 09:10:33;;;;;;;220.33;87.77;;;;;;;29.39;35.28;101279.13;5111370;28;20440;-67
2022/01/30 09:13:00;;;;;;;234.20;91.97;;;;;;;29.47;35.31;101275.28;5093783;28;20420;-67
2022/01/30 09:15:26;;;;;;;217.13;88.33;;;;;;;29.53;33.79;101274.38;5092762;28;20413;-68
2022/01/30 09:17:53;;;;;;;217.37;92.97;;;;;;;29.55;34.73;101277.59;5092508;28;20630;-70
2022/01/30 09:20:19;;;;;;;219.70;85.00;;;;;;;29.52;34.37;101270.03;5093897;28;20720;-68
2022/01/30 09:22:45;;;;;;;249.80;95.43;;;;;;;29.65;34.31;101269.78;5092589;28;20413;-68
2022/01/30 09:25:12;;;;;;;237.63;85.27;;;;;;;29.61;34.34;101265.94;5092480;28;20462;-70
2022/01/30 09:27:38;;;;;;;224.97;87.03;;;;;;;29.73;33.11;101269.38;5091773;28;20441;-68
2022/01/30 09:30:07;;;;;;;200.13;81.00;;;;;;;29.67;33.65;101262.31;5092536;28;20397;-68
2022/01/30 09:32:34;;;;;;;243.47;86.53;;;;;;;29.70;33.81;101265.31;5091838;28;20436;-69
2022/01/30 09:35:00;;;;;;;225.87;85.57;;;;;;;29.69;34.03;101261.03;5092196;28;20440;-70
2022/01/30 09:37:26;;;;;;;249.53;90.93;;;;;;;29.73;34.44;101255.22;5091852;28;20463;-67
2022/01/30 09:39:52;;;;;;;181.23;76.37;;;;;;;29.76;32.44;101252.84;5091270;28;20417;-70
2022/01/30 09:42:19;;;;;;;259.20;86.60;;;;;;;29.84;32.24;101254.34;5092105;28;20445;-71
2022/01/30 09:44:45;;;;;;;163.33;69.07;;;;;;;29.80;31.22;101259.34;5092123;28;20424;-68
2022/01/30 09:47:12;;;;;;;200.70;71.37;;;;;;;29.85;31.31;101259.44;5091957;28;20486;-71
2022/01/30 09:49:40;;;;;;;188.83;67.30;;;;;;;29.93;31.95;101256.38;5095331;28;20804;-68
2022/01/30 09:52:08;;;;;;;165.37;67.53;;;;;;;30.08;31.87;101257.66;5091191;28;20527;-69
2022/01/30 09:54:35;;;;;;;194.07;75.40;;;;;;;30.02;32.38;101261.31;5091991;28;20922;-70
2022/01/30 09:57:01;;;;;;;196.33;80.03;;;;;;;30.13;31.91;101258.59;5091770;28;20962;-68
2022/01/30 09:59:28;;;;;;;246.13;80.50;;;;;;;30.11;30.00;101262.59;5091888;28;20914;-70
2022/01/30 10:01:54;;;;;;;196.50;75.17;;;;;;;30.06;29.49;101260.59;5091788;28;20425;-70
2022/01/30 10:04:20;;;;;;;173.20;72.63;;;;;;;30.04;29.97;101259.22;5092820;28;20424;-67
2022/01/30 10:07:02;;;;;;;162.47;72.13;;;;;;;30.09;29.50;101260.13;5090666;28;20504;-66
2022/01/30 10:09:32;;;;;;;168.77;75.50;;;;;;;30.08;31.17;101257.66;5091807;28;20425;-66
2022/01/30 10:12:14;;;;;;;209.10;76.80;;;;;;;29.90;30.58;101259.53;5091209;28;20445;-68
2022/01/30 10:15:16;;;;;;;224.43;82.40;;;;;;;29.60;27.18;101249.09;5091550;28;20421;-68
2022/01/30 10:17:50;;;;;;;188.57;75.27;;;;;;;29.33;29.71;101250.66;5077278;28;20490;-68
2022/01/30 10:20:21;;;;;;;231.87;73.50;;;;;;;29.27;27.86;101251.63;5091290;28;20416;-67
2022/01/30 10:22:58;;;;;;;158.97;75.20;;;;;;;29.23;29.47;101245.16;5091319;28;20421;-69
2022/01/30 10:25:35;;;;;;;252.37;88.60;;;;;;;29.24;29.92;101238.75;5089438;28;20455;-67
2022/01/30 10:28:16;;;;;;;219.37;83.47;;;;;;;29.24;28.94;101244.09;5089567;28;20460;-68
2022/01/30 10:30:51;;;;;;;222.93;82.10;;;;;;;29.21;30.28;101247.22;5088557;28;20516;-67
2022/01/30 10:33:19;;;;;;;245.53;82.10;;;;;;;29.14;31.15;101239.34;5088897;28;20424;-67
2022/01/30 10:35:54;;;;;;;217.63;78.60;;;;;;;29.16;32.16;101242.59;5088876;28;20508;-67
2022/01/30 10:38:25;;;;;;;222.47;85.57;;;;;;;29.31;31.87;101239.41;5089481;28;20921;-68
2022/01/30 10:41:00;;;;;;;240.07;87.73;;;;;;;29.35;31.51;101237.91;5091187;28;20512;-66
2022/01/30 10:44:03;;;;;;;209.47;79.83;;;;;;;29.31;31.74;101236.75;5090858;28;20472;-66
2022/01/30 10:46:38;;;;;;;212.60;82.10;;;;;;;29.33;31.24;101240.78;5066276;28;20419;-66
2022/01/30 10:49:12;;;;;;;196.93;76.03;;;;;;;29.37;31.51;101238.47;5090984;28;20416;-66
2022/01/30 10:51:39;;;;;;;200.27;75.53;;;;;;;29.38;32.16;101229.41;5090677;28;20938;-66
2022/01/30 10:54:07;;;;;;;198.47;77.80;;;;;;;29.43;31.14;101224.16;5092303;28;20843;-66
2022/01/30 10:56:35;;;;;;;232.83;85.00;;;;;;;29.43;30.21;101224.16;5074048;28;20456;-66
2022/01/30 10:59:15;;;;;;;199.17;74.60;;;;;;;29.47;30.62;101213.81;5090765;28;20829;-68
2022/01/30 11:01:41;;;;;;;198.77;75.17;;;;;;;29.55;30.37;101205.44;5090808;28;20416;-68
2022/01/30 11:04:19;;;;;;;180.63;74.37;;;;;;;29.58;30.57;101216.44;5091057;28;20515;-68
2022/01/30 11:06:47;;;;;;;156.53;63.93;;;;;;;29.60;30.62;101211.69;5090829;28;20412;-66
2022/01/30 11:09:19;;;;;;;222.10;77.50;;;;;;;29.69;29.36;101199.53;5090636;28;20421;-66
2022/01/30 11:11:51;;;;;;;215.57;68.73;;;;;;;29.90;28.06;101202.56;5092105;28;20523;-66
2022/01/30 11:14:21;;;;;;;175.93;70.73;;;;;;;30.09;28.86;101203.94;5090656;28;20846;-68
2022/01/30 11:16:57;;;;;;;199.43;79.93;;;;;;;30.08;29.88;101191.63;5091848;28;20477;-69
2022/01/30 11:19:24;;;;;;;210.63;78.87;;;;;;;30.15;30.30;101183.47;5090634;28;20423;-68
2022/01/30 11:21:53;;;;;;;226.67;83.30;;;;;;;30.26;29.79;101187.09;5091967;28;20401;-68
2022/01/30 11:24:23;;;;;;;192.93;75.67;;;;;;;30.36;29.38;101193.41;5090600;28;20420;-69
2022/01/30 11:26:49;;;;;;;200.73;77.93;;;;;;;30.31;28.85;101184.47;5090443;28;20428;-66
2022/01/30 11:29:17;;;;;;;226.33;82.27;;;;;;;30.30;29.89;101177.50;5090510;28;20408;-67
2022/01/30 11:31:44;;;;;;;212.27;86.83;;;;;;;30.47;30.07;101186.34;5091914;28;20409;-69
2022/01/30 11:34:10;;;;;;;231.13;90.73;;;;;;;30.44;31.39;101181.44;5090470;28;20469;-67
2022/01/30 11:36:42;;;;;;;193.30;75.70;;;;;;;30.49;31.09;101176.19;5090352;28;20452;-67
2022/01/30 11:39:14;;;;;;;174.30;72.10;;;;;;;30.54;30.93;101170.09;5090512;28;20436;-67
2022/01/30 11:41:40;;;;;;;194.17;72.77;;;;;;;30.59;30.61;101168.28;5090400;28;20481;-68
2022/01/30 11:44:18;;;;;;;191.03;74.23;;;;;;;30.71;29.54;101155.63;5090508;28;20412;-68
2022/01/30 11:46:58;;;;;;;288.73;89.00;;;;;;;30.62;28.99;101149.03;5090376;28;20430;-69
2022/01/30 11:49:42;;;;;;;214.67;77.73;;;;;;;30.71;29.34;101144.09;5090256;28;20465;-69
2022/01/30 11:52:10;;;;;;;220.87;79.37;;;;;;;30.83;27.45;101135.94;5090435;28;20473;-68
2022/01/30 11:54:38;;;;;;;173.37;66.77;;;;;;;31.06;24.86;101138.34;5090366;28;20417;-69
2022/01/30 11:57:29;;;;;;;216.60;69.40;;;;;;;31.18;25.75;101140.84;5090112;28;20460;-69
2022/01/30 12:00:03;;;;;;;187.60;74.30;;;;;;;31.33;24.31;101135.69;5090125;28;20408;-67
2022/01/30 12:02:35;;;;;;;150.90;68.53;;;;;;;31.40;22.46;101127.44;5090293;28;20413;-67
2022/01/30 12:05:09;;;;;;;184.03;67.77;;;;;;;31.24;22.63;101124.63;5093892;28;20484;-67
2022/01/30 12:07:39;;;;;;;183.27;71.43;;;;;;;31.19;23.63;101116.50;5094111;28;20417;-69
2022/01/30 12:10:26;;;;;;;218.23;73.03;;;;;;;31.15;23.27;101110.03;5093885;28;20509;-68
2022/01/30 12:13:04;;;;;;;141.63;58.77;;;;;;;31.18;22.97;101106.84;5093864;28;20444;-67
2022/01/30 12:15:46;;;;;;;163.53;57.37;;;;;;;31.42;21.06;101103.88;5093895;28;20843;-67
2022/01/30 12:18:12;;;;;;;208.57;64.63;;;;;;;31.53;21.51;101094.84;5093756;28;20509;-66
2022/01/30 12:20:59;;;;;;;199.50;64.40;;;;;;;31.44;20.30;101088.34;5093835;28;20416;-66
2022/01/30 12:23:51;;;;;;;184.53;64.97;;;;;;;31.64;20.99;101083.13;5095002;28;20404;-69
2022/01/30 12:26:19;;;;;;;189.37;64.57;;;;;;;31.80;21.76;101079.53;5089819;28;20416;-67
2022/01/30 12:28:47;;;;;;;189.53;66.93;;;;;;;31.71;20.31;101066.81;5093747;28;20424;-68
2022/01/30 12:31:26;;;;;;;157.43;60.77;;;;;;;31.46;21.52;101062.09;5094929;28;20453;-67
2022/01/30 12:33:59;;;;;;;185.53;67.87;;;;;;;31.58;21.66;101060.03;5093622;28;20420;-69
2022/01/30 12:36:26;;;;;;;179.07;64.60;;;;;;;31.71;21.70;101051.53;5093347;28;20513;-69
2022/01/30 12:38:57;;;;;;;170.63;61.80;;;;;;;31.91;21.75;101048.19;5093454;28;20811;-69
2022/01/30 12:41:26;;;;;;;195.67;65.80;;;;;;;31.94;20.93;101041.50;5093447;28;20507;-69
2022/01/30 12:44:01;;;;;;;178.80;62.00;;;;;;;31.89;19.87;101042.28;5094471;28;20436;-68
2022/01/30 12:46:30;;;;;;;182.60;66.50;;;;;;;31.78;20.70;101033.34;5093346;28;20565;-69
2022/01/30 12:49:00;;;;;;;161.23;54.80;;;;;;;31.95;21.16;101027.84;5093516;28;20433;-68
2022/01/30 12:51:27;;;;;;;183.27;63.00;;;;;;;31.90;20.37;101029.69;5093277;28;20413;-68
2022/01/30 12:53:55;;;;;;;210.90;67.10;;;;;;;31.99;21.91;101017.41;5093107;28;20417;-68
2022/01/30 12:56:22;;;;;;;195.50;60.53;;;;;;;32.01;20.60;101016.06;5093102;28;20993;-68
2022/01/30 12:58:53;;;;;;;185.70;64.40;;;;;;;32.00;20.38;101014.44;5076111;28;20482;-68
2022/01/30 13:01:25;;;;;;;196.97;63.93;;;;;;;32.03;21.20;101007.75;5093010;28;20424;-69
2022/01/30 13:04:01;;;;;;;218.67;66.03;;;;;;;32.08;21.63;101003.19;5094360;28;20397;-69
2022/01/30 13:06:51;;;;;;;179.03;64.40;;;;;;;32.33;21.17;100991.78;5094311;28;20389;-69
2022/01/30 13:09:27;;;;;;;160.53;56.50;;;;;;;32.36;21.00;100990.47;5092842;28;20914;-69
2022/01/30 13:11:55;;;;;;;170.37;59.83;;;;;;;32.39;20.76;100983.75;5092627;28;20459;-67
2022/01/30 13:14:22;;;;;;;135.83;60.30;;;;;;;32.35;20.25;100978.91;5093963;28;20895;-67
2022/01/30 13:16:50;;;;;;;226.97;67.67;;;;;;;32.20;19.93;100972.66;5092520;28;20537;-67
2022/01/30 13:19:29;;;;;;;162.23;68.37;;;;;;;32.34;21.26;100965.75;5059234;28;20413;-67
2022/01/30 13:21:55;;;;;;;154.17;69.30;;;;;;;32.50;21.23;100963.91;5092703;28;20458;-68
2022/01/30 13:24:21;;;;;;;190.60;68.10;;;;;;;32.49;20.39;100957.72;5092466;28;20413;-69
2022/01/30 13:26:54;;;;;;;207.37;70.63;;;;;;;32.37;20.64;100954.47;5092378;28;20417;-68
2022/01/30 13:29:21;;;;;;;174.43;62.90;;;;;;;32.42;20.83;100951.00;5092324;28;20421;-67
2022/01/30 13:31:50;;;;;;;163.53;66.77;;;;;;;32.44;20.96;100949.66;5092350;28;20478;-67
2022/01/30 13:34:30;;;;;;;220.77;71.53;;;;;;;32.48;20.05;100944.59;5092429;28;20482;-68
2022/01/30 13:37:16;;;;;;;143.40;62.17;;;;;;;32.76;21.17;100941.38;5092154;28;20822;-67
2022/01/30 13:48:15;;;;;;;165.87;61.60;;;;;;;33.29;20.35;100922.28;5093784;28;20428;-68
2022/01/30 13:50:41;;;;;;;130.33;51.43;;;;;;;33.08;20.41;100916.91;5092054;28;20431;-69
2022/01/30 13:53:13;;;;;;;210.83;66.97;;;;;;;33.05;19.30;100913.97;5092027;28;20519;-69
2022/01/30 13:55:59;;;;;;;174.93;65.97;;;;;;;32.87;19.39;100910.78;5092041;28;20425;-69
2022/01/30 13:58:43;;;;;;;143.43;61.87;;;;;;;32.76;20.06;100897.59;5091981;28;20440;-68
2022/01/30 14:01:13;;;;;;;153.17;59.63;;;;;;;32.66;20.10;100898.41;5093153;28;20454;-69
2022/01/30 14:03:42;;;;;;;135.40;58.47;;;;;;;32.75;21.21;100891.41;5093208;28;20397;-69
2022/01/30 14:06:24;;;;;;;176.87;61.87;;;;;;;32.85;18.89;100890.59;5091700;28;20499;-67
2022/01/30 14:08:50;;;;;;;159.97;56.33;;;;;;;32.74;20.35;100887.13;5091753;28;20482;-68
2022/01/30 14:11:17;;;;;;;174.07;57.27;;;;;;;32.71;20.27;100882.25;5091537;28;20436;-68
2022/01/30 14:13:44;;;;;;;164.23;58.13;;;;;;;32.75;21.19;100877.97;5092956;28;20412;-69
2022/01/30 14:16:16;;;;;;;162.13;59.17;;;;;;;32.82;20.66;100877.69;5092403;28;20878;-68
2022/01/30 14:18:54;;;;;;;175.73;64.70;;;;;;;33.01;25.94;100867.22;5091621;28;20435;-68
2022/01/30 14:21:22;;;;;;;138.70;62.17;;;;;;;32.92;29.76;100864.28;5091507;28;20439;-68
2022/01/30 14:23:48;;;;;;;181.70;66.27;;;;;;;32.83;30.26;100864.00;5092851;28;20397;-69
2022/01/30 14:26:23;;;;;;;169.30;59.13;;;;;;;32.72;30.90;100861.56;5090952;28;20420;-68
2022/01/30 14:29:09;;;;;;;153.60;61.43;;;;;;;32.66;31.10;100857.28;5091456;28;20424;-67
2022/01/30 14:31:55;;;;;;;130.03;60.87;;;;;;;32.61;31.45;100858.91;5091241;28;20448;-69
2022/01/30 14:34:22;;;;;;;192.33;64.57;;;;;;;32.67;31.53;100857.03;5091299;28;20787;-69
2022/01/30 14:36:49;;;;;;;167.00;64.50;;;;;;;32.62;31.21;100849.78;5090931;28;20516;-69
2022/01/30 14:39:15;;;;;;;183.13;61.50;;;;;;;32.60;31.34;100843.88;5092604;28;20400;-67
2022/01/30 14:41:41;;;;;;;184.80;67.40;;;;;;;32.62;31.20;100847.09;5091181;28;20424;-67
2022/01/30 14:44:08;;;;;;;158.77;65.27;;;;;;;32.68;31.06;100841.72;5091114;28;20980;-68
2022/01/30 14:46:34;;;;;;;163.83;60.63;;;;;;;32.63;31.11;100839.84;5091068;28;20419;-68
2022/01/30 14:49:00;;;;;;;170.30;57.40;;;;;;;32.65;31.66;100840.38;5091036;28;20458;-68
2022/01/30 14:51:27;;;;;;;182.60;59.93;;;;;;;32.71;32.02;100838.50;5091058;28;20424;-68
2022/01/30 14:53:53;;;;;;;165.33;63.17;;;;;;;32.70;32.61;100828.81;5074175;28;20437;-67
2022/01/30 14:56:19;;;;;;;146.67;61.30;;;;;;;32.75;32.42;100826.94;5090926;28;20479;-68
2022/01/30 14:58:45;;;;;;;162.90;58.73;;;;;;;32.85;31.31;100815.38;5092269;28;20899;-67
2022/01/30 15:01:11;;;;;;;187.10;64.10;;;;;;;32.92;31.16;100815.94;5090894;28;20496;-67
2022/01/30 15:03:37;;;;;;;156.27;57.20;;;;;;;32.98;30.54;100811.34;5090860;28;20431;-67
2022/01/30 15:06:03;;;;;;;191.37;66.17;;;;;;;33.03;31.03;100806.78;5091952;28;20448;-69
2022/01/30 15:08:29;;;;;;;162.17;68.50;;;;;;;33.11;30.99;100803.50;5092149;28;20400;-69
2022/01/30 15:10:56;;;;;;;155.60;60.73;;;;;;;33.16;29.74;100802.69;5090673;28;20440;-69
2022/01/30 15:13:23;;;;;;;165.77;60.17;;;;;;;33.24;31.44;100795.94;5090539;28;20440;-67
2022/01/30 15:15:51;;;;;;;170.30;64.17;;;;;;;33.28;30.17;100789.75;5090691;28;20944;-67
2022/01/30 15:18:22;;;;;;;174.20;59.73;;;;;;;33.32;30.28;100798.03;5091657;28;20452;-69
2022/01/30 15:20:49;;;;;;;203.93;69.03;;;;;;;33.32;30.62;100788.09;5090610;28;20475;-68
2022/01/30 15:23:16;;;;;;;157.40;59.47;;;;;;;33.32;30.87;100788.09;5090685;28;20424;-69
2022/01/30 15:25:42;;;;;;;180.93;64.00;;;;;;;33.40;28.81;100792.16;5090541;28;20412;-69
2022/01/30 15:28:08;;;;;;;177.87;66.60;;;;;;;33.46;29.05;100785.66;5092028;28;20392;-69
2022/01/30 15:30:34;;;;;;;172.87;57.83;;;;;;;33.47;27.69;100786.47;5090486;28;20439;-67
2022/01/30 15:33:01;;;;;;;187.07;62.90;;;;;;;33.53;28.89;100777.28;5090634;28;20423;-66
2022/01/30 15:35:29;;;;;;;191.43;67.77;;;;;;;33.60;31.49;100773.19;5090506;28;20424;-68
2022/01/30 15:37:56;;;;;;;122.40;60.10;;;;;;;33.63;31.01;100780.69;5091438;28;20470;-69
2022/01/30 15:40:22;;;;;;;183.40;68.43;;;;;;;33.70;31.65;100772.34;5094608;28;20431;-66
2022/01/30 15:42:48;;;;;;;186.87;60.87;;;;;;;33.77;32.44;100772.03;5094524;28;20420;-66
2022/01/30 15:50:27;;;;;;;206.30;65.80;;;;;;;34.15;33.88;100760.47;5095714;28;20951;-66
2022/01/30 15:52:54;;;;;;;201.73;63.53;;;;;;;34.25;33.62;100764.13;5094328;28;20431;-66
2022/01/30 15:55:22;;;;;;;147.63;57.47;;;;;;;34.34;31.71;100767.84;5094314;28;20906;-67
2022/01/30 15:57:50;;;;;;;195.20;65.97;;;;;;;34.37;33.35;100764.56;5094188;28;20460;-67
2022/01/30 16:00:17;;;;;;;161.57;65.90;;;;;;;34.41;33.05;100766.41;5094051;28;20462;-69
2022/01/30 16:02:44;;;;;;;161.30;62.47;;;;;;;34.43;32.63;100764.25;5077275;28;20515;-69
2022/01/30 16:05:11;;;;;;;194.87;64.60;;;;;;;34.44;33.53;100773.97;5093925;28;20447;-69
2022/01/30 16:07:38;;;;;;;177.57;66.00;;;;;;;34.38;33.24;100767.00;5094079;28;20439;-67
2022/01/30 16:10:14;;;;;;;168.40;62.00;;;;;;;34.37;33.73;100765.38;5093744;28;20460;-69
2022/01/30 16:17:55;;;;;;;127.87;56.40;;;;;;;34.16;34.71;100755.88;5095025;28;20474;-69
2022/01/30 16:20:22;;;;;;;172.47;65.90;;;;;;;34.10;34.65;100765.88;5093554;28;20518;-69
2022/01/30 16:22:48;;;;;;;182.50;63.63;;;;;;;34.03;34.20;100762.72;5095182;28;20496;-69
2022/01/30 16:25:14;;;;;;;201.70;68.20;;;;;;;33.91;33.42;100762.25;5095091;28;20411;-67
2022/01/30 16:27:41;;;;;;;166.77;65.97;;;;;;;33.81;34.39;100771.19;5094771;28;20810;-66
2022/01/30 16:30:09;;;;;;;152.17;61.00;;;;;;;33.73;34.57;100766.41;5093731;28;20478;-69
2022/01/30 16:32:37;;;;;;;190.37;68.17;;;;;;;33.66;35.82;100768.59;5093498;28;20447;-69
2022/01/30 16:35:04;;;;;;;144.47;66.77;;;;;;;33.64;36.44;100771.56;5093472;28;20451;-70
2022/01/30 16:37:30;;;;;;;180.10;62.80;;;;;;;33.59;36.14;100768.91;5094771;28;20459;-69
2022/01/30 16:39:56;;;;;;;171.10;67.03;;;;;;;33.54;36.48;100768.13;5093464;28;20885;-68
2022/01/30 16:42:25;;;;;;;158.33;66.80;;;;;;;33.43;37.47;100767.38;5093326;28;20505;-69
2022/01/30 16:44:58;;;;;;;166.93;65.37;;;;;;;33.32;37.83;100763.91;5093331;28;20867;-67
2022/01/30 16:47:30;;;;;;;172.20;72.00;;;;;;;33.24;37.92;100767.16;5093182;28;20448;-66
2022/01/30 16:49:56;;;;;;;199.60;70.73;;;;;;;33.12;38.06;100772.06;5092742;28;20922;-66
2022/01/30 16:52:23;;;;;;;180.30;68.97;;;;;;;33.03;38.90;100785.28;5094468;28;20444;-66
2022/01/30 16:54:53;;;;;;;193.77;65.43;;;;;;;32.94;39.45;100781.53;5094553;28;20404;-66
2022/01/30 16:57:21;;;;;;;176.17;66.57;;;;;;;32.83;39.63;100786.09;5092965;28;20993;-69
2022/01/30 16:59:47;;;;;;;201.10;65.17;;;;;;;32.74;39.48;100789.63;5093165;28;20477;-69
2022/01/30 17:02:14;;;;;;;152.40;68.53;;;;;;;32.60;39.17;100794.75;5093087;28;20424;-69
2022/01/30 17:04:40;;;;;;;186.90;64.40;;;;;;;32.49;40.54;100801.19;5094601;28;20499;-69
2022/01/30 17:07:06;;;;;;;165.53;66.67;;;;;;;32.37;40.71;100800.66;5092888;28;20813;-69
2022/01/30 17:09:40;;;;;;;158.60;55.83;;;;;;;32.29;40.67;100800.09;5092900;28;20915;-67
2022/01/30 17:12:32;;;;;;;185.63;68.30;;;;;;;32.21;41.23;100799.81;5092954;28;20409;-67
2022/01/30 17:15:05;;;;;;;196.87;68.90;;;;;;;32.09;41.35;100800.88;5092731;28;20440;-66
2022/01/30 17:17:35;;;;;;;197.27;62.87;;;;;;;32.02;41.51;100805.69;5092459;28;20542;-69
2022/01/30 17:20:01;;;;;;;201.00;68.93;;;;;;;31.96;42.09;100804.09;5094177;28;20397;-69
2022/01/30 17:22:28;;;;;;;187.73;70.50;;;;;;;31.89;42.12;100802.72;5075679;28;20449;-68
2022/01/30 17:24:54;;;;;;;176.67;64.90;;;;;;;31.85;42.61;100807.00;5092745;28;20427;-69
2022/01/30 17:27:20;;;;;;;223.80;73.73;;;;;;;31.78;43.19;100807.22;5092582;28;20453;-66
2022/01/30 17:29:46;;;;;;;157.07;60.97;;;;;;;31.71;43.28;100804.81;5093577;28;20475;-67
2022/01/30 17:32:12;;;;;;;177.07;70.30;;;;;;;31.68;43.06;100812.59;5092598;28;20463;-66
2022/01/30 17:34:38;;;;;;;204.27;69.00;;;;;;;31.63;43.27;100815.25;5113902;28;20444;-68
2022/01/30 17:37:04;;;;;;;198.63;67.80;;;;;;;31.61;43.18;100818.16;5113125;27;20459;-67
2022/01/30 17:39:31;;;;;;;196.90;66.57;;;;;;;31.59;42.86;100820.31;5112660;27;20424;-68
2022/01/30 17:41:58;;;;;;;160.87;61.87;;;;;;;31.57;42.74;100817.09;5092058;28;20420;-66
2022/01/30 17:44:24;;;;;;;194.70;64.60;;;;;;;31.52;43.60;100820.56;5092252;28;20417;-65
2022/01/30 17:46:50;;;;;;;171.33;68.90;;;;;;;31.50;44.60;100827.28;5092064;28;20425;-67
2022/01/30 17:49:16;;;;;;;210.43;72.93;;;;;;;31.45;45.00;100824.56;5091990;28;20904;-67
2022/01/30 17:51:42;;;;;;;191.43;69.33;;;;;;;31.39;42.51;100826.41;5091539;28;20429;-65
2022/01/30 17:54:08;;;;;;;198.20;68.03;;;;;;;31.35;39.64;100825.31;5093254;28;20428;-68
2022/01/30 17:56:36;;;;;;;192.07;66.43;;;;;;;31.29;38.99;100831.72;5093514;28;20592;-68
2022/01/30 17:59:03;;;;;;;214.07;71.53;;;;;;;31.26;38.54;100827.69;5091877;28;20409;-68
2022/01/30 18:01:29;;;;;;;203.30;68.50;;;;;;;31.27;37.65;100831.19;5091103;28;20405;-67
2022/01/30 18:03:55;;;;;;;188.13;71.90;;;;;;;31.23;37.62;100838.09;5074983;28;20448;-68
2022/01/30 18:06:21;;;;;;;180.73;67.70;;;;;;;31.21;36.68;100833.00;5102619;28;20443;-68
2022/01/30 18:08:51;;;;;;;153.33;66.77;;;;;;;31.20;37.02;100838.63;5093941;28;20420;-77
2022/01/30 18:11:18;;;;;;;151.47;57.70;;;;;;;31.19;37.01;100840.50;5091925;28;20486;-76
2022/01/30 18:13:44;;;;;;;103.70;52.03;;;;;;;31.21;37.62;100849.06;5108981;28;20515;-77
2022/01/30 18:16:11;;;;;;;165.30;59.33;;;;;;;31.19;37.34;100853.09;5100962;28;20468;-77
2022/01/30 18:18:37;;;;;;;135.43;54.07;;;;;;;31.18;37.58;100846.94;5091188;28;20966;-77
2022/01/30 18:21:03;;;;;;;114.00;53.17;;;;;;;31.16;39.86;100848.25;5091605;28;20448;-77
2022/01/30 18:23:29;;;;;;;133.23;56.13;;;;;;;31.09;41.79;100850.34;5091516;28;20423;-76
2022/01/30 18:25:56;;;;;;;133.20;55.50;;;;;;;31.06;42.46;100851.69;5091206;28;20460;-75
2022/01/30 18:28:22;;;;;;;166.20;69.27;;;;;;;31.04;42.96;100854.59;5090831;28;20500;-77
2022/01/30 18:30:48;;;;;;;150.30;63.13;;;;;;;30.98;43.08;100855.63;5091305;28;20409;-77
2022/01/30 18:33:14;;;;;;;123.60;60.40;;;;;;;30.97;44.47;100869.28;5091253;28;20433;-81
2022/01/30 18:35:42;;;;;;;168.53;68.97;;;;;;;30.89;43.84;100859.88;5093043;28;20531;-78
2022/01/30 18:43:26;;;;;;;167.77;75.93;;;;;;;30.82;48.36;100874.56;5092288;28;20964;-80
2022/01/30 18:45:52;;;;;;;157.20;72.10;;;;;;;30.76;49.56;100871.03;5091032;28;20445;-79
2022/01/30 18:48:18;;;;;;;174.00;77.03;;;;;;;30.76;48.61;100874.50;5091027;28;20512;-80
2022/01/30 18:50:44;;;;;;;164.60;72.87;;;;;;;30.73;49.29;100877.69;5090454;28;20421;-80